sensor_id;sensor_type;location;lat;lon;timestamp;temperature;humidity
20398;DHT22;10358;49.590;11.030;2023-02-02T00:00:47;5.40;99.90
20398;DHT22;10358;49.590;11.030;2023-02-02T00:03:13;5.40;99.90
20398;DHT22;10358;49.590;11.030;2023-02-02T00:05:47;5.30;99.90
20398;DHT22;10358;49.590;11.030;2023-02-02T00:08:17;4.90;99.90
20398;DHT22;10358;49.590;11.030;2023-02-02T00:10:43;4.70;99.90
20398;DHT22;10358;49.590;11.030;2023-02-02T00:13:09;4.50;99.90
20398;DHT22;10358;49.590;11.030;2023-02-02T00:15:35;4.30;99.90
20398;DHT22;10358;49.590;11.030;2023-02-02T00:18:01;4.10;99.90
20398;DHT22;10358;49.590;11.030;2023-02-02T00:20:27;4.00;99.90
20398;DHT22;10358;49.590;11.030;2023-02-02T00:22:54;3.90;99.90
20398;DHT22;10358;49.590;11.030;2023-02-02T00:25:19;3.90;99.90
20398;DHT22;10358;49.590;11.030;2023-02-02T00:27:45;3.80;99.90
20398;DHT22;10358;49.590;11.030;2023-02-02T00:30:11;3.80;99.90
20398;DHT22;10358;49.590;11.030;2023-02-02T00:32:36;3.80;99.90
20398;DHT22;10358;49.590;11.030;2023-02-02T00:35:02;3.80;99.90
20398;DHT22;10358;49.590;11.030;2023-02-02T00:37:27;3.70;99.90
20398;DHT22;10358;49.590;11.030;2023-02-02T00:39:53;3.50;99.90
20398;DHT22;10358;49.590;11.030;2023-02-02T00:42:18;3.10;99.90
20398;DHT22;10358;49.590;11.030;2023-02-02T00:44:44;2.80;99.90
20398;DHT22;10358;49.590;11.030;2023-02-02T00:47:28;2.60;99.90
20398;DHT22;10358;49.590;11.030;2023-02-02T00:49:54;2.40;99.90
20398;DHT22;10358;49.590;11.030;2023-02-02T00:52:19;2.10;99.90
20398;DHT22;10358;49.590;11.030;2023-02-02T00:54:45;1.90;99.90
20398;DHT22;10358;49.590;11.030;2023-02-02T00:57:12;1.80;99.90
20398;DHT22;10358;49.590;11.030;2023-02-02T00:59:38;1.70;99.90
20398;DHT22;10358;49.590;11.030;2023-02-02T01:02:04;1.70;99.90
20398;DHT22;10358;49.590;11.030;2023-02-02T01:04:29;1.70;99.90
20398;DHT22;10358;49.590;11.030;2023-02-02T01:06:55;1.50;99.90
20398;DHT22;10358;49.590;11.030;2023-02-02T01:09:21;1.50;99.90
20398;DHT22;10358;49.590;11.030;2023-02-02T01:11:46;1.40;99.90
20398;DHT22;10358;49.590;11.030;2023-02-02T01:14:12;1.40;99.90
20398;DHT22;10358;49.590;11.030;2023-02-02T01:16:37;1.30;99.90
20398;DHT22;10358;49.590;11.030;2023-02-02T01:19:03;1.30;99.90
20398;DHT22;10358;49.590;11.030;2023-02-02T01:21:28;1.30;99.90
20398;DHT22;10358;49.590;11.030;2023-02-02T01:23:54;1.20;99.90
20398;DHT22;10358;49.590;11.030;2023-02-02T01:26:19;1.20;99.90
20398;DHT22;10358;49.590;11.030;2023-02-02T01:28:45;1.20;99.90
20398;DHT22;10358;49.590;11.030;2023-02-02T01:31:16;1.10;99.90
20398;DHT22;10358;49.590;11.030;2023-02-02T01:33:43;1.10;99.90
20398;DHT22;10358;49.590;11.030;2023-02-02T01:36:14;1.10;99.90
20398;DHT22;10358;49.590;11.030;2023-02-02T01:38:40;1.10;99.90
20398;DHT22;10358;49.590;11.030;2023-02-02T01:46:15;1.10;99.90
20398;DHT22;10358;49.590;11.030;2023-02-02T01:48:45;1.00;99.90
20398;DHT22;10358;49.590;11.030;2023-02-02T01:51:16;1.00;99.90
20398;DHT22;10358;49.590;11.030;2023-02-02T01:53:44;1.10;99.90
20398;DHT22;10358;49.590;11.030;2023-02-02T01:56:13;1.10;99.90
20398;DHT22;10358;49.590;11.030;2023-02-02T01:58:40;1.10;99.90
20398;DHT22;10358;49.590;11.030;2023-02-02T02:01:07;1.10;99.90
20398;DHT22;10358;49.590;11.030;2023-02-02T02:03:35;1.10;99.90
20398;DHT22;10358;49.590;11.030;2023-02-02T02:06:13;1.10;99.90
20398;DHT22;10358;49.590;11.030;2023-02-02T02:08:49;1.10;99.90
20398;DHT22;10358;49.590;11.030;2023-02-02T02:11:17;1.10;99.90
20398;DHT22;10358;49.590;11.030;2023-02-02T02:13:43;1.20;99.90
20398;DHT22;10358;49.590;11.030;2023-02-02T02:17:02;1.10;99.90
20398;DHT22;10358;49.590;11.030;2023-02-02T02:19:56;1.20;99.90
20398;DHT22;10358;49.590;11.030;2023-02-02T02:29:22;1.20;99.90
20398;DHT22;10358;49.590;11.030;2023-02-02T02:32:17;1.20;99.90
20398;DHT22;10358;49.590;11.030;2023-02-02T02:34:59;1.20;99.90
20398;DHT22;10358;49.590;11.030;2023-02-02T02:40:57;1.20;99.90
20398;DHT22;10358;49.590;11.030;2023-02-02T02:43:31;1.20;99.90
20398;DHT22;10358;49.590;11.030;2023-02-02T02:45:57;1.20;99.90
20398;DHT22;10358;49.590;11.030;2023-02-02T02:48:23;1.20;99.90
20398;DHT22;10358;49.590;11.030;2023-02-02T02:50:48;1.20;99.90
20398;DHT22;10358;49.590;11.030;2023-02-02T02:53:20;1.10;99.90
20398;DHT22;10358;49.590;11.030;2023-02-02T02:58:39;1.10;99.90
20398;DHT22;10358;49.590;11.030;2023-02-02T03:01:17;1.10;99.90
20398;DHT22;10358;49.590;11.030;2023-02-02T03:04:07;1.10;99.90
20398;DHT22;10358;49.590;11.030;2023-02-02T03:06:37;1.10;99.90
20398;DHT22;10358;49.590;11.030;2023-02-02T03:09:14;1.10;99.90
20398;DHT22;10358;49.590;11.030;2023-02-02T03:11:42;1.10;99.90
20398;DHT22;10358;49.590;11.030;2023-02-02T03:14:08;1.10;99.90
20398;DHT22;10358;49.590;11.030;2023-02-02T03:16:35;1.10;99.90
20398;DHT22;10358;49.590;11.030;2023-02-02T03:19:01;1.10;99.90
20398;DHT22;10358;49.590;11.030;2023-02-02T03:21:29;1.10;99.90
20398;DHT22;10358;49.590;11.030;2023-02-02T03:23:54;1.10;99.90
20398;DHT22;10358;49.590;11.030;2023-02-02T03:26:20;1.10;99.90
20398;DHT22;10358;49.590;11.030;2023-02-02T03:28:46;1.10;99.90
20398;DHT22;10358;49.590;11.030;2023-02-02T03:31:12;1.20;99.90
20398;DHT22;10358;49.590;11.030;2023-02-02T03:33:37;1.10;99.90
20398;DHT22;10358;49.590;11.030;2023-02-02T03:36:04;1.20;99.90
20398;DHT22;10358;49.590;11.030;2023-02-02T03:38:29;1.20;99.90
20398;DHT22;10358;49.590;11.030;2023-02-02T03:40:55;1.20;99.90
20398;DHT22;10358;49.590;11.030;2023-02-02T03:43:22;1.20;99.90
20398;DHT22;10358;49.590;11.030;2023-02-02T03:45:54;1.20;99.90
20398;DHT22;10358;49.590;11.030;2023-02-02T03:48:19;1.20;99.90
20398;DHT22;10358;49.590;11.030;2023-02-02T03:50:45;1.20;99.90
20398;DHT22;10358;49.590;11.030;2023-02-02T03:53:10;1.20;99.90
20398;DHT22;10358;49.590;11.030;2023-02-02T03:55:36;1.30;99.90
20398;DHT22;10358;49.590;11.030;2023-02-02T03:58:04;1.30;99.90
20398;DHT22;10358;49.590;11.030;2023-02-02T04:00:30;1.40;99.90
20398;DHT22;10358;49.590;11.030;2023-02-02T04:02:56;1.40;99.90
20398;DHT22;10358;49.590;11.030;2023-02-02T04:05:21;1.40;99.90
20398;DHT22;10358;49.590;11.030;2023-02-02T04:07:47;1.50;99.90
20398;DHT22;10358;49.590;11.030;2023-02-02T04:10:13;1.50;99.90
20398;DHT22;10358;49.590;11.030;2023-02-02T04:12:39;1.50;99.90
20398;DHT22;10358;49.590;11.030;2023-02-02T04:15:05;1.40;99.90
20398;DHT22;10358;49.590;11.030;2023-02-02T04:17:31;1.40;99.90
20398;DHT22;10358;49.590;11.030;2023-02-02T04:19:56;1.40;99.90
20398;DHT22;10358;49.590;11.030;2023-02-02T04:22:24;1.50;99.90
20398;DHT22;10358;49.590;11.030;2023-02-02T04:24:50;1.40;99.90
20398;DHT22;10358;49.590;11.030;2023-02-02T04:27:15;1.40;99.90
20398;DHT22;10358;49.590;11.030;2023-02-02T04:29:41;1.30;99.90
20398;DHT22;10358;49.590;11.030;2023-02-02T04:32:06;1.30;99.90
20398;DHT22;10358;49.590;11.030;2023-02-02T04:34:32;1.30;99.90
20398;DHT22;10358;49.590;11.030;2023-02-02T04:36:58;1.20;99.90
20398;DHT22;10358;49.590;11.030;2023-02-02T04:39:23;1.20;99.90
20398;DHT22;10358;49.590;11.030;2023-02-02T04:41:49;1.20;99.90
20398;DHT22;10358;49.590;11.030;2023-02-02T04:44:15;1.10;99.90
20398;DHT22;10358;49.590;11.030;2023-02-02T04:46:42;1.10;99.90
20398;DHT22;10358;49.590;11.030;2023-02-02T04:49:09;1.20;99.90
20398;DHT22;10358;49.590;11.030;2023-02-02T04:51:36;1.30;99.90
20398;DHT22;10358;49.590;11.030;2023-02-02T04:54:02;1.30;99.90
20398;DHT22;10358;49.590;11.030;2023-02-02T04:56:28;1.30;99.90
20398;DHT22;10358;49.590;11.030;2023-02-02T04:58:54;1.30;99.90
20398;DHT22;10358;49.590;11.030;2023-02-02T05:01:23;1.40;99.90
20398;DHT22;10358;49.590;11.030;2023-02-02T05:03:49;1.30;99.90
20398;DHT22;10358;49.590;11.030;2023-02-02T05:06:15;1.40;99.90
20398;DHT22;10358;49.590;11.030;2023-02-02T05:08:42;1.40;99.90
20398;DHT22;10358;49.590;11.030;2023-02-02T05:11:10;1.40;99.90
20398;DHT22;10358;49.590;11.030;2023-02-02T05:13:36;1.50;99.90
20398;DHT22;10358;49.590;11.030;2023-02-02T05:16:01;1.50;99.90
20398;DHT22;10358;49.590;11.030;2023-02-02T05:18:27;1.50;99.90
20398;DHT22;10358;49.590;11.030;2023-02-02T05:20:53;1.50;99.90
20398;DHT22;10358;49.590;11.030;2023-02-02T05:23:19;1.50;99.90
20398;DHT22;10358;49.590;11.030;2023-02-02T05:25:51;1.50;99.90
20398;DHT22;10358;49.590;11.030;2023-02-02T05:28:16;1.50;99.90
20398;DHT22;10358;49.590;11.030;2023-02-02T05:30:42;1.50;99.90
20398;DHT22;10358;49.590;11.030;2023-02-02T05:33:07;1.50;99.90
20398;DHT22;10358;49.590;11.030;2023-02-02T05:35:33;1.50;99.90
20398;DHT22;10358;49.590;11.030;2023-02-02T05:37:58;1.50;99.90
20398;DHT22;10358;49.590;11.030;2023-02-02T05:40:24;1.50;99.90
20398;DHT22;10358;49.590;11.030;2023-02-02T05:42:49;1.50;99.90
20398;DHT22;10358;49.590;11.030;2023-02-02T05:45:15;1.40;99.90
20398;DHT22;10358;49.590;11.030;2023-02-02T05:47:41;1.40;99.90
20398;DHT22;10358;49.590;11.030;2023-02-02T05:50:06;1.40;99.90
20398;DHT22;10358;49.590;11.030;2023-02-02T05:52:34;1.40;99.90
20398;DHT22;10358;49.590;11.030;2023-02-02T05:55:00;1.40;99.90
20398;DHT22;10358;49.590;11.030;2023-02-02T05:57:25;1.40;99.90
20398;DHT22;10358;49.590;11.030;2023-02-02T05:59:52;1.50;99.90
20398;DHT22;10358;49.590;11.030;2023-02-02T06:02:18;1.50;99.90
20398;DHT22;10358;49.590;11.030;2023-02-02T06:04:43;1.50;99.90
20398;DHT22;10358;49.590;11.030;2023-02-02T06:07:09;1.50;99.90
20398;DHT22;10358;49.590;11.030;2023-02-02T06:09:34;1.60;99.90
20398;DHT22;10358;49.590;11.030;2023-02-02T06:12:00;1.70;99.90
20398;DHT22;10358;49.590;11.030;2023-02-02T06:14:25;1.70;99.90
20398;DHT22;10358;49.590;11.030;2023-02-02T06:16:51;1.80;99.90
20398;DHT22;10358;49.590;11.030;2023-02-02T06:19:17;1.80;99.90
20398;DHT22;10358;49.590;11.030;2023-02-02T06:21:42;1.80;99.90
20398;DHT22;10358;49.590;11.030;2023-02-02T06:24:08;1.90;99.90
20398;DHT22;10358;49.590;11.030;2023-02-02T06:26:33;1.90;99.90
20398;DHT22;10358;49.590;11.030;2023-02-02T06:28:59;1.90;99.90
20398;DHT22;10358;49.590;11.030;2023-02-02T06:31:24;2.00;99.90
20398;DHT22;10358;49.590;11.030;2023-02-02T06:33:55;2.00;99.90
20398;DHT22;10358;49.590;11.030;2023-02-02T06:36:22;2.10;99.90
20398;DHT22;10358;49.590;11.030;2023-02-02T06:38:49;2.10;99.90
20398;DHT22;10358;49.590;11.030;2023-02-02T06:41:15;2.10;99.90
20398;DHT22;10358;49.590;11.030;2023-02-02T06:43:40;2.10;99.90
20398;DHT22;10358;49.590;11.030;2023-02-02T06:46:06;2.10;99.90
20398;DHT22;10358;49.590;11.030;2023-02-02T06:48:31;2.20;99.90
20398;DHT22;10358;49.590;11.030;2023-02-02T06:50:58;2.10;99.90
20398;DHT22;10358;49.590;11.030;2023-02-02T06:53:24;2.10;99.90
20398;DHT22;10358;49.590;11.030;2023-02-02T06:55:55;2.10;99.90
20398;DHT22;10358;49.590;11.030;2023-02-02T06:58:21;2.20;99.90
20398;DHT22;10358;49.590;11.030;2023-02-02T07:00:46;2.20;99.90
20398;DHT22;10358;49.590;11.030;2023-02-02T07:03:13;2.20;99.90
20398;DHT22;10358;49.590;11.030;2023-02-02T07:05:38;2.20;99.90
20398;DHT22;10358;49.590;11.030;2023-02-02T07:08:04;2.20;99.90
20398;DHT22;10358;49.590;11.030;2023-02-02T07:10:30;2.30;99.90
20398;DHT22;10358;49.590;11.030;2023-02-02T07:12:55;2.30;99.90
20398;DHT22;10358;49.590;11.030;2023-02-02T07:15:21;2.30;99.90
20398;DHT22;10358;49.590;11.030;2023-02-02T07:17:46;2.30;99.90
20398;DHT22;10358;49.590;11.030;2023-02-02T07:20:12;2.30;99.90
20398;DHT22;10358;49.590;11.030;2023-02-02T07:22:38;2.30;99.90
20398;DHT22;10358;49.590;11.030;2023-02-02T07:25:05;2.30;99.90
20398;DHT22;10358;49.590;11.030;2023-02-02T07:27:31;2.30;99.90
20398;DHT22;10358;49.590;11.030;2023-02-02T07:29:57;2.40;99.90
20398;DHT22;10358;49.590;11.030;2023-02-02T07:32:23;2.40;99.90
20398;DHT22;10358;49.590;11.030;2023-02-02T07:34:48;2.40;99.90
20398;DHT22;10358;49.590;11.030;2023-02-02T07:37:14;2.40;99.90
20398;DHT22;10358;49.590;11.030;2023-02-02T07:39:40;2.50;99.90
20398;DHT22;10358;49.590;11.030;2023-02-02T07:42:10;2.40;99.90
20398;DHT22;10358;49.590;11.030;2023-02-02T07:44:35;2.40;99.90
20398;DHT22;10358;49.590;11.030;2023-02-02T07:47:01;2.40;99.90
20398;DHT22;10358;49.590;11.030;2023-02-02T07:49:26;2.40;99.90
20398;DHT22;10358;49.590;11.030;2023-02-02T07:51:52;2.40;99.90
20398;DHT22;10358;49.590;11.030;2023-02-02T07:54:17;2.40;99.90
20398;DHT22;10358;49.590;11.030;2023-02-02T07:56:43;2.40;99.90
20398;DHT22;10358;49.590;11.030;2023-02-02T07:59:09;2.40;99.90
20398;DHT22;10358;49.590;11.030;2023-02-02T08:01:35;2.40;99.90
20398;DHT22;10358;49.590;11.030;2023-02-02T08:04:01;2.30;99.90
20398;DHT22;10358;49.590;11.030;2023-02-02T08:06:35;2.30;99.90
20398;DHT22;10358;49.590;11.030;2023-02-02T08:09:03;2.30;99.90
20398;DHT22;10358;49.590;11.030;2023-02-02T08:11:29;2.30;99.90
20398;DHT22;10358;49.590;11.030;2023-02-02T08:13:57;2.30;99.90
20398;DHT22;10358;49.590;11.030;2023-02-02T08:16:25;2.30;99.90
20398;DHT22;10358;49.590;11.030;2023-02-02T08:18:51;2.30;99.90
20398;DHT22;10358;49.590;11.030;2023-02-02T08:21:17;2.40;99.90
20398;DHT22;10358;49.590;11.030;2023-02-02T08:23:43;2.40;99.90
20398;DHT22;10358;49.590;11.030;2023-02-02T08:26:15;2.50;99.90
20398;DHT22;10358;49.590;11.030;2023-02-02T08:28:43;2.40;99.90
20398;DHT22;10358;49.590;11.030;2023-02-02T08:31:15;2.30;99.90
20398;DHT22;10358;49.590;11.030;2023-02-02T08:33:41;2.40;99.90
20398;DHT22;10358;49.590;11.030;2023-02-02T08:36:18;2.30;99.90
20398;DHT22;10358;49.590;11.030;2023-02-02T08:38:45;2.20;99.90
20398;DHT22;10358;49.590;11.030;2023-02-02T08:41:13;2.20;99.90
20398;DHT22;10358;49.590;11.030;2023-02-02T08:43:40;2.20;99.90
20398;DHT22;10358;49.590;11.030;2023-02-02T08:46:07;2.20;99.90
20398;DHT22;10358;49.590;11.030;2023-02-02T08:48:34;2.20;99.90
20398;DHT22;10358;49.590;11.030;2023-02-02T08:50:59;2.20;99.90
20398;DHT22;10358;49.590;11.030;2023-02-02T08:53:26;2.20;99.90
20398;DHT22;10358;49.590;11.030;2023-02-02T08:58:24;2.20;99.90
20398;DHT22;10358;49.590;11.030;2023-02-02T09:00:49;2.20;99.90
20398;DHT22;10358;49.590;11.030;2023-02-02T09:03:15;2.20;99.90
20398;DHT22;10358;49.590;11.030;2023-02-02T09:05:41;2.20;99.90
20398;DHT22;10358;49.590;11.030;2023-02-02T09:08:06;2.20;99.90
20398;DHT22;10358;49.590;11.030;2023-02-02T09:10:34;2.20;99.90
20398;DHT22;10358;49.590;11.030;2023-02-02T09:13:00;2.20;99.90
20398;DHT22;10358;49.590;11.030;2023-02-02T09:15:25;2.20;99.90
20398;DHT22;10358;49.590;11.030;2023-02-02T09:17:51;2.20;99.90
20398;DHT22;10358;49.590;11.030;2023-02-02T09:20:17;2.20;99.90
20398;DHT22;10358;49.590;11.030;2023-02-02T09:22:42;2.20;99.90
20398;DHT22;10358;49.590;11.030;2023-02-02T09:25:08;2.30;99.90
20398;DHT22;10358;49.590;11.030;2023-02-02T09:27:37;2.30;99.90
20398;DHT22;10358;49.590;11.030;2023-02-02T09:30:04;2.40;99.90
20398;DHT22;10358;49.590;11.030;2023-02-02T09:32:29;2.50;99.90
20398;DHT22;10358;49.590;11.030;2023-02-02T09:34:55;2.60;99.90
20398;DHT22;10358;49.590;11.030;2023-02-02T09:37:20;2.60;99.90
20398;DHT22;10358;49.590;11.030;2023-02-02T09:39:46;2.70;99.90
20398;DHT22;10358;49.590;11.030;2023-02-02T09:50:17;2.70;99.90
20398;DHT22;10358;49.590;11.030;2023-02-02T09:52:50;2.70;99.90
20398;DHT22;10358;49.590;11.030;2023-02-02T09:55:38;2.80;99.90
20398;DHT22;10358;49.590;11.030;2023-02-02T09:58:18;2.70;99.90
20398;DHT22;10358;49.590;11.030;2023-02-02T10:03:57;2.70;99.90
20398;DHT22;10358;49.590;11.030;2023-02-02T10:06:42;2.70;99.90
20398;DHT22;10358;49.590;11.030;2023-02-02T10:12:41;2.80;99.90
20398;DHT22;10358;49.590;11.030;2023-02-02T10:18:22;2.80;99.90
20398;DHT22;10358;49.590;11.030;2023-02-02T10:23:29;2.80;99.90
20398;DHT22;10358;49.590;11.030;2023-02-02T10:26:09;2.80;99.90
20398;DHT22;10358;49.590;11.030;2023-02-02T10:39:21;2.80;99.90
20398;DHT22;10358;49.590;11.030;2023-02-02T10:42:05;2.90;99.90
20398;DHT22;10358;49.590;11.030;2023-02-02T10:44:53;2.90;99.90
20398;DHT22;10358;49.590;11.030;2023-02-02T10:47:27;2.90;99.90
20398;DHT22;10358;49.590;11.030;2023-02-02T10:52:41;2.80;99.90
20398;DHT22;10358;49.590;11.030;2023-02-02T10:55:41;2.80;99.90
20398;DHT22;10358;49.590;11.030;2023-02-02T11:00:54;2.70;99.90
20398;DHT22;10358;49.590;11.030;2023-02-02T11:03:23;2.80;99.90
20398;DHT22;10358;49.590;11.030;2023-02-02T11:05:50;2.80;99.90
20398;DHT22;10358;49.590;11.030;2023-02-02T11:13:56;2.80;99.90
20398;DHT22;10358;49.590;11.030;2023-02-02T11:16:27;2.90;99.90
20398;DHT22;10358;49.590;11.030;2023-02-02T11:18:53;2.80;99.90
20398;DHT22;10358;49.590;11.030;2023-02-02T11:21:41;2.90;99.90
20398;DHT22;10358;49.590;11.030;2023-02-02T11:24:26;2.90;99.90
20398;DHT22;10358;49.590;11.030;2023-02-02T11:27:16;2.90;99.90
20398;DHT22;10358;49.590;11.030;2023-02-02T11:35:19;2.90;99.90
20398;DHT22;10358;49.590;11.030;2023-02-02T11:37:58;2.90;99.90
20398;DHT22;10358;49.590;11.030;2023-02-02T11:40:38;2.90;99.90
20398;DHT22;10358;49.590;11.030;2023-02-02T11:45:45;3.00;99.90
20398;DHT22;10358;49.590;11.030;2023-02-02T11:48:47;3.00;99.90
20398;DHT22;10358;49.590;11.030;2023-02-02T11:51:06;3.00;99.90
20398;DHT22;10358;49.590;11.030;2023-02-02T11:53:35;3.10;99.90
20398;DHT22;10358;49.590;11.030;2023-02-02T11:56:16;3.10;99.90
20398;DHT22;10358;49.590;11.030;2023-02-02T11:58:47;3.20;99.90
20398;DHT22;10358;49.590;11.030;2023-02-02T12:01:34;3.30;99.90
20398;DHT22;10358;49.590;11.030;2023-02-02T12:04:22;3.40;99.90
20398;DHT22;10358;49.590;11.030;2023-02-02T12:06:48;3.50;99.90
20398;DHT22;10358;49.590;11.030;2023-02-02T12:09:19;3.70;99.90
20398;DHT22;10358;49.590;11.030;2023-02-02T12:11:59;3.90;99.90
20398;DHT22;10358;49.590;11.030;2023-02-02T12:14:53;4.10;99.90
20398;DHT22;10358;49.590;11.030;2023-02-02T12:17:41;4.30;99.90
20398;DHT22;10358;49.590;11.030;2023-02-02T12:39:36;4.70;99.90
20398;DHT22;10358;49.590;11.030;2023-02-02T12:47:29;4.70;99.90
20398;DHT22;10358;49.590;11.030;2023-02-02T13:01:03;4.40;99.90
20398;DHT22;10358;49.590;11.030;2023-02-02T13:09:11;4.60;99.90
20398;DHT22;10358;49.590;11.030;2023-02-02T13:11:41;4.60;99.90
20398;DHT22;10358;49.590;11.030;2023-02-02T13:15:03;4.70;99.90
20398;DHT22;10358;49.590;11.030;2023-02-02T13:17:17;4.80;99.90
20398;DHT22;10358;49.590;11.030;2023-02-02T13:19:52;4.70;99.90
20398;DHT22;10358;49.590;11.030;2023-02-02T13:22:37;4.60;99.90
20398;DHT22;10358;49.590;11.030;2023-02-02T13:25:13;4.60;99.90
20398;DHT22;10358;49.590;11.030;2023-02-02T13:27:42;4.50;99.90
20398;DHT22;10358;49.590;11.030;2023-02-02T13:32:44;4.50;99.90
20398;DHT22;10358;49.590;11.030;2023-02-02T13:35:17;4.50;99.90
20398;DHT22;10358;49.590;11.030;2023-02-02T13:40:29;4.30;99.90
20398;DHT22;10358;49.590;11.030;2023-02-02T13:46:10;4.10;99.90
20398;DHT22;10358;49.590;11.030;2023-02-02T13:51:47;3.80;99.90
20398;DHT22;10358;49.590;11.030;2023-02-02T13:54:48;3.70;99.90
20398;DHT22;10358;49.590;11.030;2023-02-02T13:57:44;3.50;99.90
20398;DHT22;10358;49.590;11.030;2023-02-02T14:00:50;3.30;99.90
20398;DHT22;10358;49.590;11.030;2023-02-02T14:03:31;3.30;99.90
20398;DHT22;10358;49.590;11.030;2023-02-02T14:06:20;3.20;99.90
20398;DHT22;10358;49.590;11.030;2023-02-02T14:08:55;3.20;99.90
20398;DHT22;10358;49.590;11.030;2023-02-02T14:11:39;3.10;99.90
20398;DHT22;10358;49.590;11.030;2023-02-02T14:17:07;3.00;99.90
20398;DHT22;10358;49.590;11.030;2023-02-02T14:19:52;3.00;99.90
20398;DHT22;10358;49.590;11.030;2023-02-02T14:22:38;3.00;99.90
20398;DHT22;10358;49.590;11.030;2023-02-02T14:27:57;3.00;99.90
20398;DHT22;10358;49.590;11.030;2023-02-02T14:30:42;3.00;99.90
20398;DHT22;10358;49.590;11.030;2023-02-02T14:41:14;2.90;99.90
20398;DHT22;10358;49.590;11.030;2023-02-02T14:44:04;2.90;99.90
20398;DHT22;10358;49.590;11.030;2023-02-02T14:46:36;2.90;99.90
20398;DHT22;10358;49.590;11.030;2023-02-02T14:51:30;2.90;99.90
20398;DHT22;10358;49.590;11.030;2023-02-02T14:54:00;2.90;99.90
20398;DHT22;10358;49.590;11.030;2023-02-02T14:56:40;2.90;99.90
20398;DHT22;10358;49.590;11.030;2023-02-02T14:59:37;2.80;99.90
20398;DHT22;10358;49.590;11.030;2023-02-02T15:02:42;2.80;99.90
20398;DHT22;10358;49.590;11.030;2023-02-02T15:07:54;2.80;99.90
20398;DHT22;10358;49.590;11.030;2023-02-02T15:13:25;2.80;99.90
20398;DHT22;10358;49.590;11.030;2023-02-02T15:16:04;2.80;99.90
20398;DHT22;10358;49.590;11.030;2023-02-02T15:18:40;2.80;99.90
20398;DHT22;10358;49.590;11.030;2023-02-02T15:21:06;2.80;99.90
20398;DHT22;10358;49.590;11.030;2023-02-02T15:23:40;2.80;99.90
20398;DHT22;10358;49.590;11.030;2023-02-02T15:26:23;2.80;99.90
20398;DHT22;10358;49.590;11.030;2023-02-02T15:28:51;2.80;99.90
20398;DHT22;10358;49.590;11.030;2023-02-02T15:31:44;2.80;99.90
20398;DHT22;10358;49.590;11.030;2023-02-02T15:34:26;2.80;99.90
20398;DHT22;10358;49.590;11.030;2023-02-02T15:36:57;2.80;99.90
20398;DHT22;10358;49.590;11.030;2023-02-02T15:39:46;2.80;99.90
20398;DHT22;10358;49.590;11.030;2023-02-02T15:42:17;2.80;99.90
20398;DHT22;10358;49.590;11.030;2023-02-02T15:45:03;2.80;99.90
20398;DHT22;10358;49.590;11.030;2023-02-02T15:47:32;2.80;99.90
20398;DHT22;10358;49.590;11.030;2023-02-02T15:49:59;2.90;99.90
20398;DHT22;10358;49.590;11.030;2023-02-02T15:52:27;3.00;99.90
20398;DHT22;10358;49.590;11.030;2023-02-02T15:54:56;3.00;99.90
20398;DHT22;10358;49.590;11.030;2023-02-02T15:57:43;3.10;99.90
20398;DHT22;10358;49.590;11.030;2023-02-02T16:02:51;3.10;99.90
20398;DHT22;10358;49.590;11.030;2023-02-02T16:08:24;3.10;99.90
20398;DHT22;10358;49.590;11.030;2023-02-02T16:10:48;3.10;99.90
20398;DHT22;10358;49.590;11.030;2023-02-02T16:13:25;3.10;99.90
20398;DHT22;10358;49.590;11.030;2023-02-02T16:16:01;3.20;99.90
20398;DHT22;10358;49.590;11.030;2023-02-02T16:18:27;3.10;99.90
20398;DHT22;10358;49.590;11.030;2023-02-02T16:20:53;3.10;99.90
20398;DHT22;10358;49.590;11.030;2023-02-02T16:23:25;3.20;99.90
20398;DHT22;10358;49.590;11.030;2023-02-02T16:25:53;3.10;99.90
20398;DHT22;10358;49.590;11.030;2023-02-02T16:28:20;3.10;99.90
20398;DHT22;10358;49.590;11.030;2023-02-02T16:30:47;3.10;99.90
20398;DHT22;10358;49.590;11.030;2023-02-02T16:33:32;3.20;99.90
20398;DHT22;10358;49.590;11.030;2023-02-02T16:35:58;3.20;99.90
20398;DHT22;10358;49.590;11.030;2023-02-02T16:41:01;3.20;99.90
20398;DHT22;10358;49.590;11.030;2023-02-02T16:43:28;3.20;99.90
20398;DHT22;10358;49.590;11.030;2023-02-02T16:45:57;3.20;99.90
20398;DHT22;10358;49.590;11.030;2023-02-02T16:48:39;3.20;99.90
20398;DHT22;10358;49.590;11.030;2023-02-02T16:53:47;3.10;99.90
20398;DHT22;10358;49.590;11.030;2023-02-02T16:56:36;3.10;99.90
20398;DHT22;10358;49.590;11.030;2023-02-02T16:59:20;3.10;99.90
20398;DHT22;10358;49.590;11.030;2023-02-02T17:01:53;3.10;99.90
20398;DHT22;10358;49.590;11.030;2023-02-02T17:04:28;3.10;99.90
20398;DHT22;10358;49.590;11.030;2023-02-02T17:07:08;3.10;99.90
20398;DHT22;10358;49.590;11.030;2023-02-02T17:12:42;3.20;99.90
20398;DHT22;10358;49.590;11.030;2023-02-02T17:17:43;3.00;99.90
20398;DHT22;10358;49.590;11.030;2023-02-02T17:20:09;3.00;99.90
20398;DHT22;10358;49.590;11.030;2023-02-02T17:22:42;3.00;99.90
20398;DHT22;10358;49.590;11.030;2023-02-02T17:25:14;3.00;99.90
20398;DHT22;10358;49.590;11.030;2023-02-02T17:27:41;3.00;99.90
20398;DHT22;10358;49.590;11.030;2023-02-02T17:30:13;3.00;99.90
20398;DHT22;10358;49.590;11.030;2023-02-02T17:32:40;3.00;99.90
20398;DHT22;10358;49.590;11.030;2023-02-02T17:35:32;3.10;99.90
20398;DHT22;10358;49.590;11.030;2023-02-02T17:37:58;3.10;99.90
20398;DHT22;10358;49.590;11.030;2023-02-02T17:40:23;3.10;99.90
20398;DHT22;10358;49.590;11.030;2023-02-02T17:42:50;3.10;99.90
20398;DHT22;10358;49.590;11.030;2023-02-02T17:45:33;3.10;99.90
20398;DHT22;10358;49.590;11.030;2023-02-02T17:47:59;3.10;99.90
20398;DHT22;10358;49.590;11.030;2023-02-02T17:50:26;3.10;99.90
20398;DHT22;10358;49.590;11.030;2023-02-02T17:52:52;3.10;99.90
20398;DHT22;10358;49.590;11.030;2023-02-02T17:55:26;3.10;99.90
20398;DHT22;10358;49.590;11.030;2023-02-02T17:57:53;3.10;99.90
20398;DHT22;10358;49.590;11.030;2023-02-02T18:00:24;3.10;99.90
20398;DHT22;10358;49.590;11.030;2023-02-02T18:02:52;3.10;99.90
20398;DHT22;10358;49.590;11.030;2023-02-02T18:05:19;3.20;99.90
20398;DHT22;10358;49.590;11.030;2023-02-02T18:07:45;3.10;99.90
20398;DHT22;10358;49.590;11.030;2023-02-02T18:10:12;3.10;99.90
20398;DHT22;10358;49.590;11.030;2023-02-02T18:12:38;3.10;99.90
20398;DHT22;10358;49.590;11.030;2023-02-02T18:15:05;3.10;99.90
20398;DHT22;10358;49.590;11.030;2023-02-02T18:17:32;3.10;99.90
20398;DHT22;10358;49.590;11.030;2023-02-02T18:19:57;3.10;99.90
20398;DHT22;10358;49.590;11.030;2023-02-02T18:22:23;3.10;99.90
20398;DHT22;10358;49.590;11.030;2023-02-02T18:24:49;3.10;99.90
20398;DHT22;10358;49.590;11.030;2023-02-02T18:27:15;3.10;99.90
20398;DHT22;10358;49.590;11.030;2023-02-02T18:29:43;3.10;99.90
20398;DHT22;10358;49.590;11.030;2023-02-02T18:32:09;3.10;99.90